BGJN

Ilulissat Airport

Ilulissat, Greenland
TAF BGJN 251731Z 2518/2524 20008KT 8000 -SN SCT010 BKN040 TEMPO 2518/2524 4000 BKN010
Issued Valid From Valid To
Apr-25 @ 17:31 UTC
(35 minutes ago)
Apr-25 @ 18:00 UTC
(6 minutes ago)
Apr-26 @ 00:00 UTC
(in 6 hours)
Apr-25 @ 18:00 to Apr-26 @ 00:00
TAF BGJN 251731Z 2518/2524 20008KT 8000 -SN SCT010 BKN040
Wind Visibility Clouds Conditions
200° at 8 knots 7,998 meters
  • Scattered at 1,000' AGL
  • Broken at 4,000' AGL
  • Light Snow
Temporary Apr-25 @ 18:00 to Apr-26 @ 00:00
TEMPO 2518/2524 4000 BKN010
Visibility Clouds
4,007 meters
  • Broken at 1,000' AGL
TAF BGJN 251731Z 2518/2524 20008KT 8000 -SN SCT010 BKN040 TEMPO 2518/2524 4000 BKN010
Issued Apr-25 @ 17:31 UTC
(35 minutes ago)
Valid From Apr-25 @ 18:00 UTC
(6 minutes ago)
Valid To Apr-26 @ 00:00 UTC
(in 6 hours)
Apr-25 @ 18:00 - Apr-26 @ 00:00
Wind Visibility
200° at 8 knots 7,998 meters
Clouds
  • Scattered at 1,000' AGL
  • Broken at 4,000' AGL
Conditions
  • Light Snow
Temporary Apr-25 @ 18:00 - Apr-26 @ 00:00
Clouds
  • Broken at 1,000' AGL